Cleveland, Ohio
Current Conditions -  °F | °C
As of 6:00 AM on Tuesday 21 Oct 2014 (Local Time) from KBKL Reporting Station
Moderate Rain Moderate Rain  
Wind Chill: 52°   Ceiling: 2600
Heat Index: 52°   Visibility: 10mi
Dew Point: 48°   Wind: 16mph
Humidity: 86%   Direction: 340°NNW
Pressure: 29.85"   Gusts: NA
Location:  41.5°N, 81.69°W
Report Text: KBKL 211000Z 34014KT 10SM RA SCT015 BKN026 OVC048 11/09 A2985 RMK AO2 P0000 T01110089
Loading
Personal Weather Stations






























Interactive Weather Map New forecast layout! Learn more

10-Day Weather Forecast

Advertisements
Track Severe Weather on mobile